createdAt,value
2018-03-22T00:00:25.401Z,98652.18
2018-03-22T00:02:53.681Z,98643.27
2018-03-22T00:05:21.940Z,98643.45
2018-03-22T00:07:50.213Z,98640.86
2018-03-22T00:10:18.488Z,98639.97
2018-03-22T00:12:46.745Z,98636.50
2018-03-22T00:15:15.765Z,98632.93
2018-03-22T00:17:44.045Z,98630.78
2018-03-22T00:20:12.300Z,98626.83
2018-03-22T00:22:41.339Z,98629.69
2018-03-22T00:25:09.606Z,98618.24
2018-03-22T00:27:37.865Z,98610.09
2018-03-22T00:30:06.152Z,98609.69
2018-03-22T00:32:34.405Z,98609.39
2018-03-22T00:35:03.442Z,98600.41
2018-03-22T00:37:31.719Z,98590.61
2018-03-22T00:39:59.972Z,98595.95
2018-03-22T00:42:28.223Z,98588.00
2018-03-22T00:44:57.276Z,98584.42
2018-03-22T00:47:25.534Z,98582.34
2018-03-22T00:49:53.807Z,98576.53
2018-03-22T00:52:22.067Z,98571.62
2018-03-22T00:54:50.331Z,98567.54
2018-03-22T00:57:18.608Z,98562.77
2018-03-22T00:59:46.866Z,98561.84
2018-03-22T01:02:15.896Z,98560.56
2018-03-22T01:04:44.172Z,98552.68
2018-03-22T01:07:12.428Z,98551.94
2018-03-22T01:09:40.696Z,98543.59
2018-03-22T01:12:09.740Z,98541.83
2018-03-22T01:14:37.995Z,98535.66
2018-03-22T01:17:06.259Z,98533.70
2018-03-22T01:19:34.531Z,98524.61
2018-03-22T01:22:04.077Z,98520.99
2018-03-22T01:24:32.325Z,98526.86
2018-03-22T01:27:00.632Z,98534.70
2018-03-22T01:29:28.900Z,98528.71
2018-03-22T01:31:57.151Z,98524.27
2018-03-22T01:34:25.432Z,98514.67
2018-03-22T01:36:53.692Z,98516.48
2018-03-22T01:39:21.959Z,98507.70
2018-03-22T01:41:50.236Z,98507.19
2018-03-22T01:44:18.496Z,98499.17
2018-03-22T01:46:47.533Z,98492.98
2018-03-22T01:49:15.786Z,98495.11
2018-03-22T01:51:44.063Z,98483.41
2018-03-22T01:54:12.336Z,98476.61
2018-03-22T01:56:40.592Z,98477.11
2018-03-22T01:59:09.617Z,98475.72
2018-03-22T02:01:37.888Z,98469.27
2018-03-22T02:04:06.149Z,98462.17
2018-03-22T02:06:35.219Z,98460.22
2018-03-22T02:09:03.476Z,98447.86
2018-03-22T02:11:31.732Z,98443.21
2018-03-22T02:14:00.013Z,98440.04
2018-03-22T02:16:28.306Z,98436.73
2018-03-22T02:18:56.532Z,98435.52
2018-03-22T02:21:24.817Z,98441.55
2018-03-22T02:23:53.076Z,98433.69
2018-03-22T02:26:22.099Z,98429.16
2018-03-22T02:28:50.368Z,98425.19
2018-03-22T02:31:18.627Z,98418.94
2018-03-22T02:33:46.893Z,98415.01
2018-03-22T02:36:15.941Z,98417.41
2018-03-22T02:38:44.200Z,98410.75
2018-03-22T02:41:12.476Z,98407.38
2018-03-22T02:43:40.753Z,98408.06
2018-03-22T02:46:09.015Z,98412.16
2018-03-22T02:48:37.271Z,98405.41
2018-03-22T02:51:06.306Z,98403.83
2018-03-22T02:53:34.565Z,98406.48
2018-03-22T02:56:02.845Z,98404.80
2018-03-22T02:58:31.121Z,98404.03
2018-03-22T03:00:59.372Z,98390.79
2018-03-22T03:03:27.656Z,98385.70
2018-03-22T03:05:55.906Z,98381.18
2018-03-22T03:08:24.953Z,98385.04
2018-03-22T03:10:53.209Z,98383.17
2018-03-22T03:13:21.460Z,98370.83
2018-03-22T03:15:50.531Z,98364.58
2018-03-22T03:18:19.556Z,98362.72
2018-03-22T03:20:48.572Z,98352.06
2018-03-22T03:23:16.848Z,98345.52
2018-03-22T03:25:45.103Z,98340.07
2018-03-22T03:28:13.369Z,98333.63
2018-03-22T03:30:42.412Z,98312.25
2018-03-22T03:33:10.676Z,98311.11
2018-03-22T03:35:38.931Z,98307.88
2018-03-22T03:38:07.211Z,98306.28
2018-03-22T03:40:35.459Z,98297.36
2018-03-22T03:43:04.503Z,98284.46
2018-03-22T03:45:32.770Z,98280.78
2018-03-22T03:48:01.021Z,98271.78
2018-03-22T03:50:29.304Z,98270.66
2018-03-22T03:52:57.571Z,98276.52
2018-03-22T03:55:26.586Z,98275.53
2018-03-22T03:57:54.859Z,98278.98
2018-03-22T04:00:23.103Z,98267.05
2018-03-22T04:02:52.124Z,98252.31
2018-03-22T04:05:20.388Z,98248.01
2018-03-22T04:07:48.648Z,98255.97
2018-03-22T04:10:17.688Z,98244.94
2018-03-22T04:12:45.945Z,98246.98
2018-03-22T04:15:14.197Z,98231.00
2018-03-22T04:17:43.239Z,98235.73
2018-03-22T04:20:11.493Z,98237.50
2018-03-22T04:22:39.756Z,98235.00
2018-03-22T04:25:08.040Z,98224.47
2018-03-22T04:27:36.296Z,98222.48
2018-03-22T04:30:05.329Z,98215.80
2018-03-22T04:32:33.617Z,98215.75
2018-03-22T04:35:01.872Z,98201.11
2018-03-22T04:37:30.133Z,98204.67
2018-03-22T04:39:58.404Z,98200.59
2018-03-22T04:42:26.664Z,98201.22
2018-03-22T04:44:55.680Z,98201.55
2018-03-22T04:47:23.952Z,98194.25
2018-03-22T04:49:52.214Z,98201.08
2018-03-22T04:52:21.248Z,98200.58
2018-03-22T04:54:49.495Z,98188.28
2018-03-22T04:57:17.791Z,98183.23
2018-03-22T04:59:46.066Z,98175.45
2018-03-22T05:02:15.156Z,98182.33
2018-03-22T05:04:43.420Z,98178.91
2018-03-22T05:07:11.692Z,98179.81
2018-03-22T05:09:39.952Z,98170.73
2018-03-22T05:12:08.967Z,98162.11
2018-03-22T05:14:37.252Z,98160.06
2018-03-22T05:17:05.516Z,98159.59
2018-03-22T05:19:33.771Z,98153.41
2018-03-22T05:22:02.822Z,98158.95
2018-03-22T05:24:31.099Z,98154.31
2018-03-22T05:26:59.356Z,98150.45
2018-03-22T05:29:27.648Z,98141.08
2018-03-22T05:31:55.897Z,98137.00
2018-03-22T05:34:24.182Z,98129.50
2018-03-22T05:36:52.432Z,98126.75
2018-03-22T05:39:21.455Z,98127.94
2018-03-22T05:41:49.723Z,98111.32
2018-03-22T05:44:17.988Z,98111.66
2018-03-22T05:46:46.265Z,98111.72
2018-03-22T05:49:14.524Z,98111.92
2018-03-22T05:51:43.545Z,98096.09
2018-03-22T05:54:11.826Z,98101.34
2018-03-22T05:56:40.932Z,98099.25
2018-03-22T05:59:09.212Z,98092.30
2018-03-22T06:01:37.471Z,98094.14
2018-03-22T06:04:05.753Z,98085.12
2018-03-22T06:06:34.029Z,98086.23
2018-03-22T06:09:02.304Z,98082.44
2018-03-22T06:11:30.580Z,98077.25
2018-03-22T06:13:58.841Z,98077.29
2018-03-22T06:16:27.111Z,98072.23
2018-03-22T06:18:55.393Z,98071.44
2018-03-22T06:21:23.683Z,98078.45
2018-03-22T06:23:51.942Z,98073.92
2018-03-22T06:26:20.200Z,98078.94
2018-03-22T06:28:49.246Z,98076.09
2018-03-22T06:31:17.520Z,98077.22
2018-03-22T06:33:45.788Z,98065.86
2018-03-22T06:36:14.060Z,98056.29
2018-03-22T06:38:42.328Z,98049.56
2018-03-22T06:41:10.584Z,98046.06
2018-03-22T06:43:39.623Z,98031.56
2018-03-22T06:46:07.884Z,98023.25
2018-03-22T06:48:36.146Z,98018.60
2018-03-22T06:51:04.412Z,98015.52
2018-03-22T06:53:32.685Z,98016.80
2018-03-22T06:56:01.703Z,98013.02
2018-03-22T06:58:29.972Z,98003.94
2018-03-22T07:00:58.231Z,97996.90
2018-03-22T07:03:27.261Z,97985.48
2018-03-22T07:05:55.532Z,97986.63
2018-03-22T07:08:23.808Z,97978.36
2018-03-22T07:10:52.056Z,97993.78
2018-03-22T07:13:20.316Z,97987.39
2018-03-22T07:15:49.361Z,97992.28
2018-03-22T07:18:17.657Z,97987.97
2018-03-22T07:20:45.911Z,97987.47
2018-03-22T07:23:14.476Z,97987.28
2018-03-22T07:25:42.737Z,97985.71
2018-03-22T07:28:10.993Z,97994.98
2018-03-22T07:30:40.040Z,97993.22
2018-03-22T07:33:08.308Z,97981.89
2018-03-22T07:35:36.575Z,97973.09
2018-03-22T07:38:04.854Z,97971.49
2018-03-22T07:40:33.111Z,97970.31
2018-03-22T07:43:06.920Z,97971.58
2018-03-22T07:45:35.167Z,97974.34
2018-03-22T07:48:04.204Z,97971.41
2018-03-22T07:50:32.493Z,97955.97
2018-03-22T07:53:00.748Z,97962.44
2018-03-22T07:55:29.009Z,97957.48
2018-03-22T07:57:58.047Z,97955.03
2018-03-22T08:00:26.304Z,97949.73
2018-03-22T08:03:02.128Z,97948.58
2018-03-22T08:05:31.144Z,97949.19
2018-03-22T08:07:59.408Z,97954.97
2018-03-22T08:10:27.712Z,97953.34
2018-03-22T08:12:55.979Z,97941.64
2018-03-22T08:15:24.231Z,97947.57
2018-03-22T08:17:52.505Z,97938.91
2018-03-22T08:20:21.532Z,97945.53
2018-03-22T08:22:49.808Z,97932.66
2018-03-22T08:25:18.140Z,97920.19
2018-03-22T08:27:47.166Z,97917.73
2018-03-22T08:30:15.475Z,97911.55
2018-03-22T08:32:43.732Z,97909.16
2018-03-22T08:35:11.984Z,97910.17
2018-03-22T08:37:40.260Z,97891.64
2018-03-22T08:40:08.512Z,97893.64
2018-03-22T08:42:37.556Z,97892.53
2018-03-22T08:45:05.847Z,97880.24
2018-03-22T08:47:34.097Z,97885.18
2018-03-22T08:50:02.349Z,97884.17
2018-03-22T08:52:30.612Z,97895.44
2018-03-22T08:54:59.634Z,97892.33
2018-03-22T08:57:27.899Z,97883.31
2018-03-22T08:59:56.186Z,97883.92
2018-03-22T09:02:24.439Z,97875.22
2018-03-22T09:04:53.628Z,97868.59
2018-03-22T09:07:22.640Z,97870.59
2018-03-22T09:09:50.912Z,97860.55
2018-03-22T09:12:19.167Z,97863.21
2018-03-22T09:14:48.183Z,97860.23
2018-03-22T09:17:16.455Z,97859.53
2018-03-22T09:19:45.481Z,97864.42
2018-03-22T09:22:13.720Z,97848.09
2018-03-22T09:24:42.764Z,97849.00
2018-03-22T09:27:11.016Z,97843.87
2018-03-22T09:29:39.264Z,97842.46
2018-03-22T09:32:08.305Z,97836.33
2018-03-22T09:34:36.547Z,97835.36
2018-03-22T09:37:04.799Z,97827.45
2018-03-22T09:39:33.836Z,97831.16
2018-03-22T09:42:02.085Z,97824.49
2018-03-22T09:44:30.355Z,97818.65
2018-03-22T09:46:59.387Z,97814.47
2018-03-22T09:49:27.644Z,97804.72
2018-03-22T09:51:55.900Z,97819.94
2018-03-22T09:54:24.927Z,97816.81
2018-03-22T09:56:53.177Z,97813.95
2018-03-22T09:59:21.427Z,97818.50
2018-03-22T10:01:49.693Z,97819.45
2018-03-22T10:04:19.456Z,97818.66
2018-03-22T10:06:47.719Z,97813.33
2018-03-22T10:09:15.972Z,97819.06
2018-03-22T10:11:44.987Z,97814.65
2018-03-22T10:14:13.252Z,97824.59
2018-03-22T10:16:42.262Z,97823.38
2018-03-22T10:19:10.539Z,97823.27
2018-03-22T10:21:38.798Z,97817.72
2018-03-22T10:24:07.812Z,97816.64
2018-03-22T10:26:36.080Z,97811.61
2018-03-22T10:29:04.327Z,97811.03
2018-03-22T10:31:33.364Z,97811.30
2018-03-22T10:34:01.632Z,97803.63
2018-03-22T10:36:29.881Z,97801.33
2018-03-22T10:38:58.917Z,97795.68
2018-03-22T10:41:27.172Z,97794.66
2018-03-22T10:43:55.431Z,97785.30
2018-03-22T10:46:24.470Z,97788.33
2018-03-22T10:48:52.719Z,97787.84
2018-03-22T10:51:21.008Z,97785.48
2018-03-22T10:53:49.256Z,97783.09
2018-03-22T10:56:18.288Z,97781.33
2018-03-22T10:58:46.555Z,97774.67
2018-03-22T11:01:20.252Z,97773.80
2018-03-22T11:03:53.487Z,97770.80
2018-03-22T11:06:22.516Z,97768.69
2018-03-22T11:08:51.533Z,97762.45
2018-03-22T11:11:19.804Z,97752.80
2018-03-22T11:13:48.064Z,97743.05
2018-03-22T11:16:17.112Z,97754.05
2018-03-22T11:18:45.364Z,97737.95
2018-03-22T11:21:13.650Z,97736.70
2018-03-22T11:23:41.898Z,97740.02
2018-03-22T11:26:10.148Z,97728.24
2018-03-22T11:28:39.175Z,97729.00
2018-03-22T11:31:07.433Z,97717.20
2018-03-22T11:33:35.760Z,97717.66
2018-03-22T11:36:04.025Z,97720.63
2018-03-22T11:38:32.276Z,97714.59
2018-03-22T11:41:00.540Z,97713.77
2018-03-22T11:43:28.817Z,97717.95
2018-03-22T11:45:57.064Z,97721.58
2018-03-22T11:48:25.492Z,97720.77
2018-03-22T11:50:53.782Z,97707.14
2018-03-22T11:53:22.048Z,97709.39
2018-03-22T11:55:50.304Z,97700.08
2018-03-22T11:58:18.553Z,97690.33
2018-03-22T12:00:46.853Z,97695.33
2018-03-22T12:03:15.859Z,97703.74
2018-03-22T12:05:44.112Z,97694.86
2018-03-22T12:08:13.224Z,97692.41
2018-03-22T12:10:41.480Z,97699.62
2018-03-22T12:13:10.502Z,97690.05
2018-03-22T12:15:38.784Z,97685.44
2018-03-22T12:18:07.035Z,97677.95
2018-03-22T12:20:36.059Z,97675.53
2018-03-22T12:23:04.307Z,97666.05
2018-03-22T12:25:32.556Z,97659.76
2018-03-22T12:28:01.609Z,97664.80
2018-03-22T12:30:29.870Z,97668.59
2018-03-22T12:32:58.132Z,97672.06
2018-03-22T12:35:26.423Z,97678.80
2018-03-22T12:37:54.675Z,97673.41
2018-03-22T12:40:22.924Z,97664.08
2018-03-22T12:42:51.187Z,97676.41
2018-03-22T12:45:19.435Z,97677.23
2018-03-22T12:47:47.684Z,97659.41
2018-03-22T12:50:15.987Z,97663.20
2018-03-22T12:52:45.477Z,97661.05
2018-03-22T12:55:13.753Z,97665.38
2018-03-22T12:57:41.999Z,97654.70
2018-03-22T13:00:11.036Z,97661.13
2018-03-22T13:02:39.283Z,97660.65
2018-03-22T13:05:07.551Z,97667.06
2018-03-22T13:07:35.832Z,97664.50
2018-03-22T13:10:04.870Z,97667.48
2018-03-22T13:12:33.112Z,97664.95
2018-03-22T13:15:01.369Z,97678.95
2018-03-22T13:17:30.397Z,97666.19
2018-03-22T13:19:58.686Z,97661.11
2018-03-22T13:22:27.784Z,97667.02
2018-03-22T13:24:56.064Z,97664.92
2018-03-22T13:27:24.317Z,97669.20
2018-03-22T13:29:52.623Z,97661.13
2018-03-22T13:32:20.860Z,97665.62
2018-03-22T13:34:49.106Z,97665.01
2018-03-22T13:37:18.127Z,97665.02
2018-03-22T13:39:46.405Z,97661.25
2018-03-22T13:42:14.656Z,97654.63
2018-03-22T13:44:43.698Z,97647.91
2018-03-22T13:47:11.940Z,97646.22
2018-03-22T13:49:40.197Z,97649.61
2018-03-22T13:52:09.224Z,97644.52
2018-03-22T13:54:37.492Z,97642.34
2018-03-22T13:57:05.760Z,97646.59
2018-03-22T13:59:34.797Z,97650.36
2018-03-22T14:02:03.064Z,97638.12
2018-03-22T14:04:31.326Z,97644.88
2018-03-22T14:06:59.603Z,97646.08
2018-03-22T14:09:27.875Z,97637.61
2018-03-22T14:11:56.118Z,97639.28
2018-03-22T14:14:25.139Z,97632.61
2018-03-22T14:16:53.399Z,97630.08
2018-03-22T14:19:21.668Z,97624.55
2018-03-22T14:21:50.679Z,97626.25
2018-03-22T14:24:18.983Z,97625.83
2018-03-22T14:26:47.224Z,97623.28
2018-03-22T14:29:15.491Z,97622.02
2018-03-22T14:31:44.511Z,97620.33
2018-03-22T14:34:12.764Z,97612.67
2018-03-22T14:36:41.808Z,97606.28
2018-03-22T14:39:10.064Z,97610.13
2018-03-22T14:41:38.316Z,97603.70
2018-03-22T14:44:06.597Z,97600.69
2018-03-22T14:46:34.852Z,97602.84
2018-03-22T14:49:03.868Z,97600.75
2018-03-22T14:51:32.140Z,97595.58
2018-03-22T14:54:00.406Z,97595.99
2018-03-22T14:56:29.422Z,97596.88
2018-03-22T14:58:57.707Z,97588.00
2018-03-22T15:01:26.009Z,97581.21
2018-03-22T15:03:54.215Z,97582.48
2018-03-22T15:06:23.298Z,97574.81
2018-03-22T15:08:51.555Z,97574.39
2018-03-22T15:11:19.817Z,97577.80
2018-03-22T15:13:48.091Z,97573.55
2018-03-22T15:16:16.380Z,97573.14
2018-03-22T15:18:44.652Z,97567.61
2018-03-22T15:21:12.916Z,97568.06
2018-03-22T15:23:41.177Z,97569.75
2018-03-22T15:26:09.423Z,97566.80
2018-03-22T15:28:38.458Z,97557.88
2018-03-22T15:31:06.710Z,97567.20
2018-03-22T15:33:34.980Z,97562.55
2018-03-22T15:36:04.137Z,97560.00
2018-03-22T15:38:33.207Z,97564.25
2018-03-22T15:41:01.461Z,97566.38
2018-03-22T15:43:29.744Z,97557.91
2018-03-22T15:45:58.180Z,97561.30
2018-03-22T15:48:27.579Z,97562.56
2018-03-22T15:50:55.920Z,97560.44
2018-03-22T15:53:24.185Z,97558.30
2018-03-22T15:55:52.469Z,97559.56
2018-03-22T15:58:20.867Z,97567.64
2018-03-22T16:00:49.148Z,97559.98
2018-03-22T16:03:17.435Z,97563.38
2018-03-22T16:05:45.750Z,97562.55
2018-03-22T16:08:14.034Z,97558.73
2018-03-22T16:10:42.445Z,97559.59
2018-03-22T16:13:11.888Z,97562.98
2018-03-22T16:15:40.176Z,97552.36
2018-03-22T16:18:08.456Z,97556.59
2018-03-22T16:20:36.757Z,97557.90
2018-03-22T16:23:05.135Z,97563.41
2018-03-22T16:25:33.842Z,97562.13
2018-03-22T16:28:02.233Z,97567.23
2018-03-22T16:30:31.805Z,97565.94
2018-03-22T16:33:02.031Z,97568.94
2018-03-22T16:35:31.359Z,97562.13
2018-03-22T16:38:01.474Z,97561.30
2018-03-22T16:40:31.047Z,97560.02
2018-03-22T16:43:00.450Z,97559.60
2018-03-22T16:45:29.341Z,97562.12
2018-03-22T16:47:58.067Z,97557.45
2018-03-22T16:50:27.399Z,97556.58
2018-03-22T16:52:56.591Z,97556.61
2018-03-22T16:55:26.131Z,97565.09
2018-03-22T16:57:54.837Z,97562.97
2018-03-22T17:00:23.606Z,97562.55
2018-03-22T17:02:52.830Z,97568.05
2018-03-22T17:05:22.718Z,97561.70
2018-03-22T17:07:51.717Z,97567.20
2018-03-22T17:10:20.626Z,97569.33
2018-03-22T17:12:50.429Z,97567.59
2018-03-22T17:15:20.396Z,97568.86
2018-03-22T17:17:49.786Z,97573.50
2018-03-22T17:20:19.540Z,97572.25
2018-03-22T17:22:50.296Z,97569.70
2018-03-22T17:25:19.989Z,97570.98
2018-03-22T17:27:50.637Z,97573.53
2018-03-22T17:30:20.579Z,97576.03
2018-03-22T17:32:50.502Z,97572.19
2018-03-22T17:35:20.650Z,97572.25
2018-03-22T17:37:50.670Z,97573.09
2018-03-22T17:40:20.694Z,97575.27
2018-03-22T17:42:51.857Z,97571.88
2018-03-22T17:45:21.581Z,97572.75
2018-03-22T17:47:51.699Z,97566.40
2018-03-22T17:50:21.678Z,97565.54
2018-03-22T17:52:52.369Z,97574.03
2018-03-22T17:55:22.239Z,97576.14
2018-03-22T17:57:53.299Z,97579.13
2018-03-22T18:00:23.123Z,97569.78
2018-03-22T18:02:53.158Z,97575.31
2018-03-22T18:05:23.013Z,97575.73
2018-03-22T18:07:53.563Z,97572.75
2018-03-22T18:10:24.287Z,97573.17
2018-03-22T18:12:55.051Z,97579.10
2018-03-22T18:15:24.800Z,97578.28
2018-03-22T18:17:54.936Z,97579.54
2018-03-22T18:20:24.945Z,97577.84
2018-03-22T18:22:54.841Z,97572.33
2018-03-22T18:25:24.908Z,97569.34
2018-03-22T18:27:54.951Z,97575.73
2018-03-22T18:30:24.786Z,97577.02
2018-03-22T18:32:54.585Z,97581.69
2018-03-22T18:35:24.654Z,97580.39
2018-03-22T18:37:54.535Z,97584.66
2018-03-22T18:40:24.428Z,97591.00
2018-03-22T18:42:54.366Z,97586.30
2018-03-22T18:45:24.470Z,97592.23
2018-03-22T18:47:54.890Z,97588.00
2018-03-22T18:50:24.740Z,97586.73
2018-03-22T18:52:54.677Z,97592.24
2018-03-22T18:55:24.603Z,97588.83
2018-03-22T18:57:54.603Z,97597.25
2018-03-22T19:00:25.294Z,97589.20
2018-03-22T19:02:56.073Z,97590.92
2018-03-22T19:05:26.558Z,97588.42
2018-03-22T19:07:59.842Z,97584.19
2018-03-22T19:10:30.712Z,97587.55
2018-03-22T19:13:01.622Z,97584.98
2018-03-22T19:15:32.338Z,97588.79
2018-03-22T19:18:01.685Z,97585.76
2018-03-22T19:20:31.047Z,97592.94
2018-03-22T19:23:00.365Z,97586.61
2018-03-22T19:25:29.779Z,97584.09
2018-03-22T19:27:59.070Z,97583.29
2018-03-22T19:30:28.360Z,97583.31
2018-03-22T19:32:59.764Z,97581.22
2018-03-22T19:35:29.776Z,97577.81
2018-03-22T19:37:59.290Z,97585.02
2018-03-22T19:40:28.615Z,97577.41
2018-03-22T19:43:00.954Z,97569.70
2018-03-22T19:45:31.865Z,97573.08
2018-03-22T19:48:01.699Z,97581.58
2018-03-22T19:50:33.246Z,97577.77
2018-03-22T19:53:03.352Z,97574.80
2018-03-22T19:55:33.908Z,97567.09
2018-03-22T19:58:03.959Z,97578.53
2018-03-22T20:00:33.857Z,97575.13
2018-03-22T20:03:03.273Z,97581.44
2018-03-22T20:05:33.408Z,97578.55
2018-03-22T20:08:03.244Z,97578.19
2018-03-22T20:10:33.251Z,97578.16
2018-03-22T20:13:03.362Z,97576.94
2018-03-22T20:15:33.995Z,97579.05
2018-03-22T20:18:03.830Z,97577.31
2018-03-22T20:20:34.472Z,97584.13
2018-03-22T20:23:05.400Z,97582.88
2018-03-22T20:25:36.250Z,97580.33
2018-03-22T20:28:07.014Z,97585.02
2018-03-22T20:30:37.066Z,97569.66
2018-03-22T20:33:07.994Z,97579.47
2018-03-22T20:35:37.909Z,97576.95
2018-03-22T20:38:07.878Z,97577.35
2018-03-22T20:40:38.486Z,97576.90
2018-03-22T20:43:09.240Z,97583.14
2018-03-22T20:45:39.887Z,97582.40
2018-03-22T20:48:10.083Z,97583.64
2018-03-22T20:50:40.748Z,97576.49
2018-03-22T20:53:10.765Z,97568.47
2018-03-22T20:55:40.766Z,97565.92
2018-03-22T20:58:10.684Z,97570.60
2018-03-22T21:00:40.587Z,97566.77
2018-03-22T21:03:12.213Z,97568.42
2018-03-22T21:05:41.999Z,97566.76
2018-03-22T21:08:11.971Z,97565.91
2018-03-22T21:10:42.655Z,97559.08
2018-03-22T21:13:12.440Z,97559.12
2018-03-22T21:15:43.057Z,97559.12
2018-03-22T21:18:12.868Z,97555.72
2018-03-22T21:20:43.560Z,97552.70
2018-03-22T21:23:13.532Z,97557.78
2018-03-22T21:25:43.311Z,97561.20
2018-03-22T21:28:13.126Z,97557.37
2018-03-22T21:30:43.990Z,97552.71
2018-03-22T21:33:13.860Z,97552.70
2018-03-22T21:35:43.992Z,97544.22
2018-03-22T21:38:14.804Z,97540.39
2018-03-22T21:40:44.768Z,97545.06
2018-03-22T21:43:14.841Z,97545.09
2018-03-22T21:45:44.610Z,97539.58
2018-03-22T21:48:14.509Z,97543.38
2018-03-22T21:50:51.184Z,97536.17
2018-03-22T21:53:21.248Z,97530.66
2018-03-22T21:55:52.611Z,97532.70
2018-03-22T21:58:22.483Z,97534.41
2018-03-22T22:00:52.446Z,97529.74
2018-03-22T22:03:22.505Z,97526.31
2018-03-22T22:05:52.031Z,97529.33
2018-03-22T22:08:22.204Z,97531.47
2018-03-22T22:10:52.490Z,97521.25
2018-03-22T22:13:20.972Z,97517.82
2018-03-22T22:15:50.094Z,97520.34
2018-03-22T22:18:18.423Z,97514.73
2018-03-22T22:20:48.223Z,97519.83
2018-03-22T22:23:16.482Z,97519.42
2018-03-22T22:25:44.732Z,97520.64
2018-03-22T22:28:13.780Z,97515.99
2018-03-22T22:30:42.051Z,97515.27
2018-03-22T22:33:10.302Z,97521.09
2018-03-22T22:35:38.573Z,97518.63
2018-03-22T22:38:06.869Z,97518.19
2018-03-22T22:40:35.122Z,97514.70
2018-03-22T22:43:04.123Z,97512.27
2018-03-22T22:45:32.384Z,97507.66
2018-03-22T22:48:00.642Z,97500.87
2018-03-22T22:50:29.692Z,97505.98
2018-03-22T22:52:57.936Z,97497.51
2018-03-22T22:55:26.204Z,97498.77
2018-03-22T22:57:54.491Z,97493.69
2018-03-22T23:00:22.752Z,97486.50
2018-03-22T23:02:51.009Z,97481.78
2018-03-22T23:05:20.054Z,97482.58
2018-03-22T23:07:48.334Z,97477.94
2018-03-22T23:10:16.569Z,97479.60
2018-03-22T23:12:45.609Z,97473.69
2018-03-22T23:15:13.862Z,97468.44
2018-03-22T23:17:42.112Z,97471.45
2018-03-22T23:20:11.188Z,97475.16
2018-03-22T23:22:39.441Z,97471.36
2018-03-22T23:25:07.702Z,97469.27
2018-03-22T23:27:35.976Z,97466.29
2018-03-22T23:30:04.232Z,97465.45
2018-03-22T23:32:32.505Z,97466.28
2018-03-22T23:35:00.771Z,97464.63
2018-03-22T23:37:29.036Z,97463.34
2018-03-22T23:39:58.068Z,97462.08
2018-03-22T23:42:26.347Z,97464.67
2018-03-22T23:44:54.605Z,97462.48
2018-03-22T23:47:22.863Z,97454.31
2018-03-22T23:49:51.139Z,97451.02
2018-03-22T23:52:19.396Z,97452.53
2018-03-22T23:54:48.436Z,97452.49
2018-03-22T23:57:16.700Z,97452.56
2018-03-22T23:59:44.977Z,97454.63
